Time;durP1;ratioP1;P1;durP2;ratioP2;P2;SDS_P1;SDS_P2;PMS_P1;PMS_P2;Temp;Humidity;BMP_temperature;BMP_pressure;BME280_temperature;BME280_humidity;BME280_pressure;Samples;Min_cycle;Max_cycle;Signal;HPM_P1;HPM_P2
2023/08/01 00:02:00;;;;;;;23.47;22.10;;;;;;;;;;5036262;28;20428;-42
2023/08/01 00:04:28;;;;;;;24.80;23.50;;;;;;;;;;5035541;28;20543;-44
2023/08/01 00:06:56;;;;;;;23.67;22.57;;;;;;;;;;5029638;28;20472;-44
2023/08/01 00:09:24;;;;;;;24.30;23.00;;;;;;;;;;5029585;28;20454;-45
2023/08/01 00:11:51;;;;;;;23.73;22.73;;;;;;;;;;5029787;28;20563;-46
2023/08/01 00:14:20;;;;;;;24.83;23.43;;;;;;;;;;5028667;28;20510;-42
2023/08/01 00:16:48;;;;;;;23.90;22.70;;;;;;;;;;5028806;28;20436;-42
2023/08/01 00:19:17;;;;;;;25.20;24.00;;;;;;;;;;5028994;28;21051;-42
2023/08/01 00:21:45;;;;;;;23.77;22.60;;;;;;;;;;5028410;28;20773;-43
2023/08/01 00:24:12;;;;;;;24.33;23.27;;;;;;;;;;5028878;28;20530;-44
2023/08/01 00:26:40;;;;;;;25.60;24.50;;;;;;;;;;5030352;28;20527;-44
2023/08/01 00:29:08;;;;;;;24.03;23.13;;;;;;;;;;5028703;28;20432;-44
2023/08/01 00:31:36;;;;;;;24.40;23.30;;;;;;;;;;5028552;28;20468;-45
2023/08/01 00:34:03;;;;;;;25.47;24.00;;;;;;;;;;5028221;28;21073;-45
2023/08/01 00:36:32;;;;;;;23.70;22.70;;;;;;;;;;5029152;28;20432;-45
2023/08/01 00:38:59;;;;;;;24.80;23.27;;;;;;;;;;5029444;28;21020;-43
2023/08/01 00:41:27;;;;;;;25.27;24.07;;;;;;;;;;5028795;28;20894;-43
2023/08/01 00:43:54;;;;;;;25.60;24.00;;;;;;;;;;5028382;28;20587;-43
2023/08/01 00:46:22;;;;;;;25.30;23.80;;;;;;;;;;5029102;28;20547;-45
2023/08/01 00:48:50;;;;;;;25.30;23.87;;;;;;;;;;5028811;28;20460;-44
2023/08/01 00:51:18;;;;;;;25.90;24.40;;;;;;;;;;5029154;28;20473;-45
2023/08/01 00:53:47;;;;;;;26.47;25.07;;;;;;;;;;5028418;28;21161;-42
2023/08/01 00:56:14;;;;;;;24.83;23.63;;;;;;;;;;5029234;28;20436;-45
2023/08/01 00:58:42;;;;;;;25.57;24.30;;;;;;;;;;5029393;28;20943;-45
2023/08/01 01:01:10;;;;;;;26.50;24.90;;;;;;;;;;5028558;28;20428;-43
2023/08/01 01:03:37;;;;;;;27.03;25.53;;;;;;;;;;5027790;28;20559;-44
2023/08/01 01:06:09;;;;;;;25.90;24.60;;;;;;;;;;5029327;28;20921;-44
2023/08/01 01:08:37;;;;;;;27.20;25.60;;;;;;;;;;5032046;28;20440;-42
2023/08/01 01:11:06;;;;;;;27.10;25.50;;;;;;;;;;5032408;28;20446;-44
2023/08/01 01:13:33;;;;;;;27.30;25.87;;;;;;;;;;5031639;28;20478;-43
2023/08/01 01:16:01;;;;;;;27.23;25.63;;;;;;;;;;5032043;28;20452;-42
2023/08/01 01:18:28;;;;;;;28.33;26.83;;;;;;;;;;5033112;28;20970;-43
2023/08/01 01:20:57;;;;;;;28.57;26.87;;;;;;;;;;5032712;28;21012;-43
2023/08/01 01:23:26;;;;;;;28.73;27.33;;;;;;;;;;5032121;28;20853;-44
2023/08/01 01:25:55;;;;;;;27.17;25.70;;;;;;;;;;5030990;28;21016;-45
2023/08/01 01:28:23;;;;;;;27.87;26.47;;;;;;;;;;5032591;28;20853;-45
2023/08/01 01:30:53;;;;;;;29.37;27.70;;;;;;;;;;5031892;28;20976;-44
2023/08/01 01:33:21;;;;;;;29.50;28.00;;;;;;;;;;5031665;28;20510;-45
2023/08/01 01:35:49;;;;;;;31.97;29.97;;;;;;;;;;5031564;28;20487;-42
2023/08/01 01:38:18;;;;;;;32.17;29.73;;;;;;;;;;5031666;28;20444;-44
2023/08/01 01:40:45;;;;;;;31.70;29.60;;;;;;;;;;5032722;28;20444;-47
2023/08/01 01:43:13;;;;;;;31.30;29.23;;;;;;;;;;5030366;28;20459;-43
2023/08/01 01:45:40;;;;;;;30.17;28.27;;;;;;;;;;5024769;28;21005;-41
2023/08/01 01:48:08;;;;;;;31.37;29.27;;;;;;;;;;5029928;28;20818;-43
2023/08/01 01:50:35;;;;;;;29.93;28.00;;;;;;;;;;5030521;28;20482;-42
2023/08/01 01:53:03;;;;;;;28.80;27.07;;;;;;;;;;5031251;28;20471;-42
2023/08/01 01:55:32;;;;;;;30.40;28.70;;;;;;;;;;5031076;28;20530;-43
2023/08/01 01:58:00;;;;;;;26.93;25.53;;;;;;;;;;5031946;28;20515;-43
2023/08/01 02:00:27;;;;;;;24.93;23.93;;;;;;;;;;5031057;28;20436;-47
2023/08/01 02:02:55;;;;;;;26.20;24.83;;;;;;;;;;5031507;28;21122;-45
2023/08/01 02:05:23;;;;;;;26.17;25.00;;;;;;;;;;5030677;28;20460;-43
2023/08/01 02:07:50;;;;;;;24.03;23.03;;;;;;;;;;5031335;28;20577;-45
2023/08/01 02:10:18;;;;;;;26.70;25.40;;;;;;;;;;5031532;28;20428;-43
2023/08/01 02:12:47;;;;;;;27.50;26.37;;;;;;;;;;5030431;28;20475;-42
2023/08/01 02:15:15;;;;;;;26.80;25.67;;;;;;;;;;5031027;28;20476;-44
2023/08/01 02:17:42;;;;;;;25.27;24.17;;;;;;;;;;5031251;28;20478;-46
2023/08/01 02:20:10;;;;;;;27.63;26.33;;;;;;;;;;5030523;28;20448;-48
2023/08/01 02:22:38;;;;;;;24.63;23.60;;;;;;;;;;5031459;28;20551;-45
2023/08/01 02:25:06;;;;;;;25.43;24.30;;;;;;;;;;5031467;28;20460;-42
2023/08/01 02:27:34;;;;;;;26.47;25.20;;;;;;;;;;5030564;28;20444;-43
2023/08/01 02:30:03;;;;;;;27.33;26.10;;;;;;;;;;5030784;28;20428;-43
2023/08/01 02:32:30;;;;;;;25.83;24.63;;;;;;;;;;5030821;28;20508;-42
2023/08/01 02:34:58;;;;;;;26.90;25.60;;;;;;;;;;5029850;28;20468;-43
2023/08/01 02:37:26;;;;;;;26.77;25.53;;;;;;;;;;5030912;28;20791;-44
2023/08/01 02:39:53;;;;;;;28.87;27.23;;;;;;;;;;5031217;28;20527;-42
2023/08/01 02:42:21;;;;;;;28.30;26.90;;;;;;;;;;5030047;28;20787;-45
2023/08/01 02:44:48;;;;;;;29.00;27.47;;;;;;;;;;5029979;28;20476;-44
2023/08/01 02:47:18;;;;;;;29.50;28.00;;;;;;;;;;5030813;28;20498;-44
2023/08/01 02:49:46;;;;;;;27.77;26.43;;;;;;;;;;5030991;28;20436;-43
2023/08/01 02:52:14;;;;;;;27.47;26.17;;;;;;;;;;5030234;28;20883;-42
2023/08/01 02:54:41;;;;;;;27.77;26.57;;;;;;;;;;5029249;28;20508;-42
2023/08/01 02:57:09;;;;;;;26.87;25.60;;;;;;;;;;5030154;28;20490;-43
2023/08/01 02:59:37;;;;;;;26.10;24.90;;;;;;;;;;5030341;28;20506;-44
2023/08/01 03:02:05;;;;;;;26.60;25.30;;;;;;;;;;5030615;28;20448;-44
2023/08/01 03:04:34;;;;;;;28.33;26.93;;;;;;;;;;5029384;28;20529;-46
2023/08/01 03:07:13;;;;;;;27.27;25.90;;;;;;;;;;5029895;28;20436;-43
2023/08/01 03:09:42;;;;;;;28.57;27.20;;;;;;;;;;5030472;28;20973;-44
2023/08/01 03:12:10;;;;;;;29.80;28.20;;;;;;;;;;5030139;28;20446;-43
2023/08/01 03:14:38;;;;;;;31.30;29.30;;;;;;;;;;5029952;28;20464;-42
2023/08/01 03:17:08;;;;;;;28.50;26.77;;;;;;;;;;5031113;28;20436;-45
2023/08/01 03:19:36;;;;;;;29.53;28.00;;;;;;;;;;5030157;28;20454;-48
2023/08/01 03:22:04;;;;;;;28.03;26.83;;;;;;;;;;5030443;28;20498;-43
2023/08/01 03:24:32;;;;;;;32.70;30.43;;;;;;;;;;5029792;28;20525;-44
2023/08/01 03:27:00;;;;;;;30.10;28.60;;;;;;;;;;5029703;28;20507;-45
2023/08/01 03:29:28;;;;;;;29.07;27.57;;;;;;;;;;5030172;28;20450;-47
2023/08/01 03:31:55;;;;;;;28.17;26.97;;;;;;;;;;5029992;28;20518;-44
2023/08/01 03:34:23;;;;;;;28.50;27.07;;;;;;;;;;5028475;28;20471;-45
2023/08/01 03:36:52;;;;;;;30.97;29.17;;;;;;;;;;5029767;28;20487;-43
2023/08/01 03:39:20;;;;;;;30.53;28.60;;;;;;;;;;5030351;28;20435;-44
2023/08/01 03:41:47;;;;;;;28.53;27.20;;;;;;;;;;5029287;28;20957;-42
2023/08/01 03:44:16;;;;;;;28.60;27.10;;;;;;;;;;5029406;28;20471;-42
2023/08/01 03:46:44;;;;;;;27.93;26.43;;;;;;;;;;5030217;28;20639;-43
2023/08/01 03:49:12;;;;;;;27.10;25.90;;;;;;;;;;5028945;28;20519;-43
2023/08/01 03:51:40;;;;;;;27.33;26.00;;;;;;;;;;5029187;28;20444;-43
2023/08/01 03:54:09;;;;;;;27.83;26.50;;;;;;;;;;5029027;28;20460;-44
2023/08/01 03:56:43;;;;;;;26.93;25.73;;;;;;;;;;5029273;28;20554;-42
2023/08/01 03:59:12;;;;;;;26.70;25.40;;;;;;;;;;5029645;28;20436;-43
2023/08/01 04:01:39;;;;;;;26.87;25.47;;;;;;;;;;5029046;28;20988;-43
2023/08/01 04:04:07;;;;;;;25.40;24.30;;;;;;;;;;5028968;28;20538;-42
2023/08/01 04:06:34;;;;;;;23.90;22.90;;;;;;;;;;5029336;28;20515;-43
2023/08/01 04:09:01;;;;;;;26.77;25.40;;;;;;;;;;5028905;28;20439;-43
2023/08/01 04:11:30;;;;;;;25.87;24.57;;;;;;;;;;5028528;28;20439;-42
2023/08/01 04:13:58;;;;;;;24.70;23.50;;;;;;;;;;5028251;28;20510;-43
2023/08/01 04:16:25;;;;;;;24.80;23.80;;;;;;;;;;5028608;28;20451;-42
2023/08/01 04:18:53;;;;;;;25.27;24.23;;;;;;;;;;5029421;28;20970;-46
2023/08/01 04:21:20;;;;;;;25.77;24.37;;;;;;;;;;5029160;28;20509;-42
2023/08/01 04:23:48;;;;;;;25.30;24.00;;;;;;;;;;5028294;28;20448;-43
2023/08/01 04:26:15;;;;;;;25.10;24.10;;;;;;;;;;5029231;28;20432;-42
2023/08/01 04:28:46;;;;;;;25.30;24.03;;;;;;;;;;5029724;28;20998;-43
2023/08/01 04:31:13;;;;;;;22.53;21.40;;;;;;;;;;5029485;28;20432;-45
2023/08/01 04:33:41;;;;;;;22.90;22.00;;;;;;;;;;5028903;28;20551;-43
2023/08/01 04:36:09;;;;;;;23.47;22.47;;;;;;;;;;5029251;28;20459;-42
2023/08/01 04:38:37;;;;;;;24.17;23.17;;;;;;;;;;5029327;28;20468;-43
2023/08/01 04:41:04;;;;;;;22.23;21.33;;;;;;;;;;5032832;28;20509;-42
2023/08/01 04:43:32;;;;;;;22.70;21.70;;;;;;;;;;5032543;28;20930;-42
2023/08/01 04:46:01;;;;;;;22.43;21.40;;;;;;;;;;5033279;28;20841;-43
2023/08/01 04:48:28;;;;;;;22.47;21.47;;;;;;;;;;5035114;28;20436;-42
2023/08/01 04:50:56;;;;;;;22.80;21.80;;;;;;;;;;5035151;28;20431;-45
2023/08/01 04:53:23;;;;;;;22.03;21.13;;;;;;;;;;5034825;28;20471;-43
2023/08/01 04:55:51;;;;;;;22.00;20.80;;;;;;;;;;5034664;28;20468;-42
2023/08/01 04:58:18;;;;;;;21.80;20.60;;;;;;;;;;5035383;28;20482;-42
2023/08/01 05:00:46;;;;;;;22.20;21.00;;;;;;;;;;5035123;28;20483;-43
2023/08/01 05:03:15;;;;;;;21.00;20.00;;;;;;;;;;5035137;28;20440;-43
2023/08/01 05:05:42;;;;;;;21.70;20.40;;;;;;;;;;5034544;28;20459;-42
2023/08/01 05:08:10;;;;;;;21.23;20.13;;;;;;;;;;5035139;28;20493;-43
2023/08/01 05:10:37;;;;;;;21.27;20.27;;;;;;;;;;5034534;28;20940;-42
2023/08/01 05:13:05;;;;;;;21.30;20.40;;;;;;;;;;5035009;28;20475;-43
2023/08/01 05:15:32;;;;;;;21.03;20.13;;;;;;;;;;5034285;28;20880;-42
2023/08/01 05:18:00;;;;;;;20.70;19.90;;;;;;;;;;5034846;28;20499;-42
2023/08/01 05:20:30;;;;;;;20.73;19.83;;;;;;;;;;5034769;28;20431;-44
2023/08/01 05:22:58;;;;;;;21.77;20.77;;;;;;;;;;5034714;28;20443;-43
2023/08/01 05:25:26;;;;;;;22.93;21.93;;;;;;;;;;5034303;28;20459;-42
2023/08/01 05:27:54;;;;;;;23.83;22.43;;;;;;;;;;5034821;28;20443;-45
2023/08/01 05:30:21;;;;;;;23.80;22.60;;;;;;;;;;5034942;28;20435;-42
2023/08/01 05:32:49;;;;;;;24.50;23.30;;;;;;;;;;5034440;28;20435;-43
2023/08/01 05:35:16;;;;;;;23.63;22.53;;;;;;;;;;5033767;28;20467;-43
2023/08/01 05:37:46;;;;;;;23.40;22.33;;;;;;;;;;5034832;28;20455;-43
2023/08/01 05:40:14;;;;;;;23.60;22.60;;;;;;;;;;5034454;28;20803;-44
2023/08/01 05:42:41;;;;;;;22.67;21.67;;;;;;;;;;5034180;28;20439;-43
2023/08/01 05:45:11;;;;;;;23.13;22.13;;;;;;;;;;5033887;28;20543;-42
2023/08/01 05:47:40;;;;;;;21.80;20.80;;;;;;;;;;5034110;28;20969;-43
2023/08/01 05:50:08;;;;;;;22.53;21.60;;;;;;;;;;5034354;28;20442;-42
2023/08/01 05:52:35;;;;;;;23.40;22.30;;;;;;;;;;5033298;28;20442;-42
2023/08/01 05:55:05;;;;;;;23.10;22.10;;;;;;;;;;5033527;28;20455;-42
2023/08/01 05:57:32;;;;;;;22.20;20.90;;;;;;;;;;5034236;28;20432;-42
2023/08/01 06:00:00;;;;;;;21.30;20.40;;;;;;;;;;5033860;28;20470;-43
2023/08/01 06:02:28;;;;;;;22.17;21.07;;;;;;;;;;5033530;28;20938;-42
2023/08/01 06:04:55;;;;;;;21.50;20.60;;;;;;;;;;5033052;28;20468;-45
2023/08/01 06:07:23;;;;;;;21.40;20.50;;;;;;;;;;5033615;28;20460;-46
2023/08/01 06:09:51;;;;;;;20.70;19.80;;;;;;;;;;5033998;28;20440;-43
2023/08/01 06:12:20;;;;;;;19.70;18.90;;;;;;;;;;5033768;28;20583;-43
2023/08/01 06:14:48;;;;;;;19.60;18.70;;;;;;;;;;5033165;28;20464;-42
2023/08/01 06:17:16;;;;;;;19.10;18.30;;;;;;;;;;5033868;28;20472;-42
2023/08/01 06:19:43;;;;;;;19.23;18.53;;;;;;;;;;5033665;28;20463;-44
2023/08/01 06:22:11;;;;;;;19.83;19.03;;;;;;;;;;5032911;28;20444;-43
2023/08/01 06:24:38;;;;;;;20.10;19.20;;;;;;;;;;5032834;28;20464;-42
2023/08/01 06:27:07;;;;;;;19.57;18.77;;;;;;;;;;5033523;28;20432;-42
2023/08/01 06:29:37;;;;;;;18.80;18.10;;;;;;;;;;5033753;28;20432;-42
2023/08/01 06:32:04;;;;;;;19.47;18.63;;;;;;;;;;5033667;28;20928;-42
2023/08/01 06:34:32;;;;;;;19.07;18.37;;;;;;;;;;5032846;28;20472;-43
2023/08/01 06:37:00;;;;;;;18.13;17.43;;;;;;;;;;5033391;28;20440;-45
2023/08/01 06:39:27;;;;;;;19.13;18.43;;;;;;;;;;5033014;28;20443;-43
2023/08/01 06:41:55;;;;;;;18.77;17.97;;;;;;;;;;5033276;28;20432;-42
2023/08/01 06:44:22;;;;;;;19.47;18.77;;;;;;;;;;5032851;28;20621;-43
2023/08/01 06:46:52;;;;;;;19.70;18.80;;;;;;;;;;5032431;28;20436;-44
2023/08/01 06:49:19;;;;;;;19.10;18.40;;;;;;;;;;5033140;28;20740;-43
2023/08/01 06:51:47;;;;;;;18.50;17.80;;;;;;;;;;5032860;28;20506;-44
2023/08/01 06:54:15;;;;;;;18.90;18.20;;;;;;;;;;5032490;28;20467;-42
2023/08/01 06:56:47;;;;;;;18.13;17.30;;;;;;;;;;5033174;28;20431;-43
2023/08/01 06:59:14;;;;;;;16.53;15.97;;;;;;;;;;5032932;28;20436;-42
2023/08/01 07:01:43;;;;;;;19.07;18.37;;;;;;;;;;5032702;28;20526;-44
2023/08/01 07:04:12;;;;;;;22.03;21.13;;;;;;;;;;5030056;28;20477;-43
2023/08/01 07:06:40;;;;;;;20.40;19.60;;;;;;;;;;5032774;28;20944;-45
2023/08/01 07:09:08;;;;;;;22.40;21.40;;;;;;;;;;5032814;28;20459;-46
2023/08/01 07:11:36;;;;;;;20.40;19.70;;;;;;;;;;5032671;28;20542;-45
2023/08/01 07:14:03;;;;;;;20.80;20.10;;;;;;;;;;5032099;28;20491;-43
2023/08/01 07:16:31;;;;;;;22.10;20.90;;;;;;;;;;5032645;28;20435;-44
2023/08/01 07:19:00;;;;;;;23.13;22.23;;;;;;;;;;5029738;28;20934;-43
2023/08/01 07:21:29;;;;;;;22.03;21.00;;;;;;;;;;5031883;28;20478;-43
2023/08/01 07:23:58;;;;;;;20.80;20.10;;;;;;;;;;5031602;28;20478;-45
2023/08/01 07:26:25;;;;;;;20.93;20.23;;;;;;;;;;5031690;28;20427;-41
2023/08/01 07:28:53;;;;;;;22.67;21.67;;;;;;;;;;5031405;28;20522;-44
2023/08/01 07:31:20;;;;;;;22.40;21.60;;;;;;;;;;5030758;28;20494;-42
2023/08/01 07:33:48;;;;;;;21.13;20.33;;;;;;;;;;5031479;28;20464;-44
2023/08/01 07:36:15;;;;;;;21.43;20.70;;;;;;;;;;5031735;28;20550;-41
2023/08/01 07:38:44;;;;;;;19.80;19.20;;;;;;;;;;5031121;28;20451;-44
2023/08/01 07:41:12;;;;;;;21.80;20.80;;;;;;;;;;5031728;28;20913;-43
2023/08/01 07:43:39;;;;;;;20.63;19.63;;;;;;;;;;5031329;28;20867;-41
2023/08/01 07:46:08;;;;;;;21.57;20.57;;;;;;;;;;5031514;28;20424;-42
2023/08/01 07:48:36;;;;;;;20.70;19.80;;;;;;;;;;5032093;28;20467;-44
2023/08/01 07:51:05;;;;;;;21.03;20.23;;;;;;;;;;5032070;28;20444;-43
2023/08/01 07:53:32;;;;;;;20.90;20.20;;;;;;;;;;5031502;28;20440;-44
2023/08/01 07:56:02;;;;;;;19.43;18.83;;;;;;;;;;5031697;28;20506;-46
2023/08/01 07:58:30;;;;;;;19.47;18.63;;;;;;;;;;5031895;28;20845;-44
2023/08/01 08:00:57;;;;;;;21.33;20.40;;;;;;;;;;5031172;28;20849;-42
2023/08/01 08:03:25;;;;;;;18.73;17.93;;;;;;;;;;5031936;28;20428;-41
2023/08/01 08:05:52;;;;;;;19.30;18.60;;;;;;;;;;5030972;28;20469;-44
2023/08/01 08:08:20;;;;;;;19.63;18.73;;;;;;;;;;5012040;28;20452;-41
2023/08/01 08:10:47;;;;;;;19.73;19.00;;;;;;;;;;5011777;28;20439;-43
2023/08/01 08:13:16;;;;;;;18.57;17.77;;;;;;;;;;5011775;28;20467;-42
2023/08/01 08:15:44;;;;;;;18.13;17.50;;;;;;;;;;5010598;28;20504;-42
2023/08/01 08:18:11;;;;;;;17.40;16.70;;;;;;;;;;5012078;28;20432;-43
2023/08/01 08:20:42;;;;;;;17.30;16.50;;;;;;;;;;5011851;28;20440;-42
2023/08/01 08:23:09;;;;;;;18.00;17.30;;;;;;;;;;5011700;28;20494;-43
2023/08/01 08:25:38;;;;;;;17.87;17.07;;;;;;;;;;5011124;28;20473;-45
2023/08/01 08:28:05;;;;;;;17.23;16.63;;;;;;;;;;5012228;28;20429;-41
2023/08/01 08:30:34;;;;;;;17.57;16.67;;;;;;;;;;5011933;28;20486;-47
2023/08/01 08:33:04;;;;;;;17.67;17.07;;;;;;;;;;5011608;28;20478;-43
2023/08/01 08:35:32;;;;;;;17.40;16.30;;;;;;;;;;5024607;28;20612;-44
2023/08/01 08:37:59;;;;;;;17.13;16.50;;;;;;;;;;5031493;28;20477;-43
2023/08/01 08:40:27;;;;;;;18.27;17.27;;;;;;;;;;5031180;28;20882;-42
2023/08/01 08:42:54;;;;;;;16.63;16.00;;;;;;;;;;5030972;28;20984;-45
2023/08/01 08:45:22;;;;;;;17.90;17.13;;;;;;;;;;5031034;28;20468;-46
2023/08/01 08:47:55;;;;;;;18.53;17.83;;;;;;;;;;5031163;28;20428;-44
2023/08/01 08:50:23;;;;;;;17.70;17.00;;;;;;;;;;5031337;28;20904;-45
2023/08/01 08:52:51;;;;;;;18.03;17.23;;;;;;;;;;5031192;28;20806;-44
2023/08/01 08:55:21;;;;;;;17.63;16.93;;;;;;;;;;5029363;28;20502;-42
2023/08/01 08:57:50;;;;;;;17.83;16.83;;;;;;;;;;5030253;28;20763;-42
2023/08/01 09:00:19;;;;;;;18.87;18.07;;;;;;;;;;5031357;28;20482;-42
2023/08/01 09:02:48;;;;;;;17.30;16.67;;;;;;;;;;5030109;28;20436;-46
2023/08/01 09:05:17;;;;;;;18.17;17.47;;;;;;;;;;5030481;28;20470;-46
2023/08/01 09:07:47;;;;;;;19.90;18.37;;;;;;;;;;5031201;28;20442;-42
2023/08/01 09:10:15;;;;;;;19.10;18.37;;;;;;;;;;5031297;28;20493;-43
2023/08/01 09:12:42;;;;;;;20.97;19.70;;;;;;;;;;5031162;28;20431;-43
2023/08/01 09:15:11;;;;;;;19.67;18.60;;;;;;;;;;5030698;28;20467;-42
2023/08/01 09:17:48;;;;;;;19.40;18.60;;;;;;;;;;5031323;28;20493;-43
2023/08/01 09:20:17;;;;;;;20.40;19.40;;;;;;;;;;5031097;28;20865;-47
2023/08/01 09:22:45;;;;;;;19.17;18.37;;;;;;;;;;5030997;28;20447;-43
2023/08/01 09:25:12;;;;;;;19.27;18.20;;;;;;;;;;5030715;28;20464;-42
2023/08/01 09:27:40;;;;;;;17.90;17.20;;;;;;;;;;5034337;28;20438;-45
2023/08/01 09:30:09;;;;;;;18.30;17.50;;;;;;;;;;5034611;28;20470;-44
2023/08/01 09:32:36;;;;;;;17.23;16.40;;;;;;;;;;5034215;28;20841;-46
2023/08/01 09:35:04;;;;;;;17.07;16.47;;;;;;;;;;5034060;28;20536;-42
2023/08/01 09:37:43;;;;;;;17.93;17.23;;;;;;;;;;5034813;28;20526;-42
2023/08/01 09:40:10;;;;;;;19.07;18.10;;;;;;;;;;5034222;28;20431;-43
2023/08/01 09:42:38;;;;;;;21.10;19.63;;;;;;;;;;5034310;28;20447;-42
2023/08/01 09:45:08;;;;;;;20.27;18.60;;;;;;;;;;5033986;28;20470;-44
2023/08/01 09:47:37;;;;;;;19.07;18.27;;;;;;;;;;5034633;28;20478;-44
2023/08/01 09:50:05;;;;;;;20.63;19.73;;;;;;;;;;5034369;28;20954;-43
2023/08/01 09:52:32;;;;;;;17.80;17.00;;;;;;;;;;5034238;28;20486;-40
2023/08/01 09:55:01;;;;;;;18.00;17.40;;;;;;;;;;5033994;28;20483;-43
2023/08/01 09:57:30;;;;;;;18.23;17.63;;;;;;;;;;5034101;28;20888;-43
2023/08/01 09:59:58;;;;;;;19.97;19.27;;;;;;;;;;5034499;28;20436;-43
2023/08/01 10:02:26;;;;;;;19.10;18.30;;;;;;;;;;5034143;28;20443;-44
2023/08/01 10:04:55;;;;;;;19.20;18.40;;;;;;;;;;5033449;28;20460;-41
2023/08/01 10:07:24;;;;;;;18.03;17.43;;;;;;;;;;5025457;28;20432;-41
2023/08/01 10:09:53;;;;;;;16.30;15.80;;;;;;;;;;5034011;28;20509;-42
2023/08/01 10:12:24;;;;;;;17.10;16.50;;;;;;;;;;5033730;28;20979;-43
2023/08/01 10:14:52;;;;;;;17.43;16.73;;;;;;;;;;5033308;28;20526;-42
2023/08/01 10:17:21;;;;;;;17.17;16.63;;;;;;;;;;5033920;28;20556;-44
2023/08/01 10:19:49;;;;;;;16.00;15.40;;;;;;;;;;5033984;28;20432;-43
2023/08/01 10:22:17;;;;;;;16.10;15.50;;;;;;;;;;5033075;28;20447;-42
2023/08/01 10:24:46;;;;;;;15.70;15.00;;;;;;;;;;5031160;28;20463;-42
2023/08/01 10:27:14;;;;;;;17.23;16.53;;;;;;;;;;5033612;28;20502;-42
2023/08/01 10:29:43;;;;;;;17.33;16.43;;;;;;;;;;5033625;28;20845;-44
2023/08/01 10:32:11;;;;;;;15.70;14.80;;;;;;;;;;5033144;28;20914;-43
2023/08/01 10:34:39;;;;;;;14.00;13.50;;;;;;;;;;5033363;28;20460;-43
2023/08/01 10:37:07;;;;;;;13.40;12.90;;;;;;;;;;5032533;28;20514;-42
2023/08/01 10:39:34;;;;;;;13.33;12.63;;;;;;;;;;5033607;28;20470;-42
2023/08/01 10:42:02;;;;;;;12.37;11.70;;;;;;;;;;5033349;28;20527;-43
2023/08/01 10:44:31;;;;;;;15.13;13.80;;;;;;;;;;5032717;28;20467;-42
2023/08/01 10:47:01;;;;;;;16.60;15.47;;;;;;;;;;5033057;28;20440;-42
2023/08/01 10:49:36;;;;;;;14.87;13.83;;;;;;;;;;5032558;28;20464;-43
2023/08/01 10:52:06;;;;;;;13.97;13.30;;;;;;;;;;5029550;28;20443;-42
2023/08/01 10:54:37;;;;;;;15.57;14.33;;;;;;;;;;5028555;28;20479;-43
2023/08/01 10:57:06;;;;;;;13.83;13.13;;;;;;;;;;5031012;28;20550;-44
2023/08/01 10:59:35;;;;;;;13.37;12.73;;;;;;;;;;5031376;28;20865;-43
2023/08/01 11:02:04;;;;;;;15.37;14.57;;;;;;;;;;5034013;28;20428;-43
2023/08/01 11:04:31;;;;;;;16.13;15.23;;;;;;;;;;5036606;28;20464;-45
2023/08/01 11:07:00;;;;;;;18.67;17.07;;;;;;;;;;5037546;28;20440;-44
2023/08/01 11:09:28;;;;;;;14.40;13.63;;;;;;;;;;5037523;28;20424;-42
2023/08/01 11:11:57;;;;;;;15.60;14.90;;;;;;;;;;5035590;28;21206;-47
2023/08/01 11:14:26;;;;;;;14.17;13.37;;;;;;;;;;5036552;28;20474;-43
2023/08/01 11:16:55;;;;;;;15.43;14.73;;;;;;;;;;5037217;28;20475;-42
2023/08/01 11:19:24;;;;;;;16.47;15.77;;;;;;;;;;5037399;28;20515;-46
2023/08/01 11:21:52;;;;;;;15.43;14.63;;;;;;;;;;5036877;28;20989;-45
2023/08/01 11:24:20;;;;;;;12.83;12.23;;;;;;;;;;5035872;28;20494;-44
2023/08/01 11:26:48;;;;;;;13.67;12.80;;;;;;;;;;5037598;28;20435;-42
2023/08/01 11:29:16;;;;;;;13.43;12.63;;;;;;;;;;5037049;28;20505;-43
2023/08/01 11:31:53;;;;;;;15.70;14.50;;;;;;;;;;5037792;28;20424;-42
2023/08/01 11:34:21;;;;;;;14.90;13.67;;;;;;;;;;5032437;28;20463;-47
2023/08/01 11:36:50;;;;;;;12.80;12.30;;;;;;;;;;5037141;28;20460;-45
2023/08/01 11:39:18;;;;;;;13.03;12.33;;;;;;;;;;5036746;28;20527;-43
2023/08/01 11:41:45;;;;;;;11.90;11.30;;;;;;;;;;5035841;28;20463;-42
2023/08/01 11:44:13;;;;;;;13.40;12.17;;;;;;;;;;5035472;28;20460;-44
2023/08/01 11:46:41;;;;;;;11.23;10.60;;;;;;;;;;5035854;28;20963;-45
2023/08/01 11:49:09;;;;;;;9.87;9.47;;;;;;;;;;5036746;28;20525;-42
2023/08/01 11:51:40;;;;;;;9.17;8.80;;;;;;;;;;5036266;28;20424;-42
2023/08/01 11:54:11;;;;;;;9.13;8.73;;;;;;;;;;5034954;28;20563;-43
2023/08/01 11:56:39;;;;;;;8.93;8.43;;;;;;;;;;5035966;28;20423;-42
2023/08/01 11:59:10;;;;;;;10.20;9.70;;;;;;;;;;5036438;28;20428;-42
2023/08/01 12:01:39;;;;;;;9.53;8.93;;;;;;;;;;5034418;28;20444;-46
2023/08/01 12:04:06;;;;;;;10.40;9.57;;;;;;;;;;5034032;28;20521;-45
2023/08/01 12:06:34;;;;;;;9.73;9.23;;;;;;;;;;5028969;28;20435;-45
2023/08/01 12:09:07;;;;;;;10.60;10.00;;;;;;;;;;5034872;28;20424;-43
2023/08/01 12:11:36;;;;;;;11.07;10.30;;;;;;;;;;5036199;28;20513;-42
2023/08/01 12:14:05;;;;;;;9.30;8.90;;;;;;;;;;5029494;28;20471;-42
2023/08/01 12:16:32;;;;;;;12.03;10.90;;;;;;;;;;5036240;28;20428;-42
2023/08/01 12:19:00;;;;;;;9.53;9.13;;;;;;;;;;5036697;28;20460;-44
2023/08/01 12:21:28;;;;;;;10.90;10.10;;;;;;;;;;5035259;28;20497;-47
2023/08/01 12:23:55;;;;;;;11.27;10.27;;;;;;;;;;5033012;28;20467;-42
2023/08/01 12:26:23;;;;;;;10.20;9.70;;;;;;;;;;5035432;28;20428;-43
2023/08/01 12:28:52;;;;;;;9.87;9.37;;;;;;;;;;5035360;28;20930;-43
2023/08/01 12:31:20;;;;;;;11.00;10.40;;;;;;;;;;5024018;28;20438;-43
2023/08/01 12:33:48;;;;;;;11.40;10.70;;;;;;;;;;5034652;28;20432;-47
2023/08/01 12:36:16;;;;;;;12.47;11.67;;;;;;;;;;5036223;28;20460;-45
2023/08/01 12:38:44;;;;;;;11.17;10.70;;;;;;;;;;5035287;28;20521;-43
2023/08/01 12:41:12;;;;;;;10.43;9.87;;;;;;;;;;5036248;28;20424;-43
2023/08/01 12:43:39;;;;;;;10.30;9.53;;;;;;;;;;5035203;28;20451;-44
2023/08/01 12:46:08;;;;;;;9.07;8.53;;;;;;;;;;5035474;28;20466;-44
2023/08/01 12:48:36;;;;;;;10.03;9.20;;;;;;;;;;5032362;28;20787;-44
2023/08/01 12:51:03;;;;;;;9.70;9.00;;;;;;;;;;5037184;28;20438;-44
2023/08/01 12:53:31;;;;;;;9.13;8.60;;;;;;;;;;5034895;28;20432;-45
2023/08/01 12:55:58;;;;;;;10.30;9.30;;;;;;;;;;5035600;28;20463;-43
2023/08/01 12:58:26;;;;;;;8.97;8.30;;;;;;;;;;5035288;28;20503;-46
2023/08/01 13:00:54;;;;;;;8.80;8.20;;;;;;;;;;5038547;28;20436;-44
2023/08/01 13:03:23;;;;;;;9.17;8.27;;;;;;;;;;5039995;28;20455;-43
2023/08/01 13:05:52;;;;;;;9.53;8.80;;;;;;;;;;5039033;28;20463;-44
2023/08/01 13:08:20;;;;;;;10.00;9.40;;;;;;;;;;5040004;28;20481;-42
2023/08/01 13:10:49;;;;;;;9.13;8.83;;;;;;;;;;5040663;28;20423;-43
2023/08/01 13:13:17;;;;;;;9.57;9.10;;;;;;;;;;5037490;28;20438;-43
2023/08/01 13:15:45;;;;;;;9.40;9.00;;;;;;;;;;5038653;28;20563;-45
2023/08/01 13:18:12;;;;;;;8.90;8.50;;;;;;;;;;5037679;28;20811;-43
2023/08/01 13:20:41;;;;;;;8.87;8.40;;;;;;;;;;5038828;28;20479;-42
2023/08/01 13:23:09;;;;;;;9.60;9.10;;;;;;;;;;5035523;28;20987;-42
2023/08/01 13:25:36;;;;;;;9.73;8.97;;;;;;;;;;5039020;28;20463;-47
2023/08/01 13:28:04;;;;;;;9.40;8.70;;;;;;;;;;5037848;28;20432;-42
2023/08/01 13:30:32;;;;;;;10.27;9.67;;;;;;;;;;5039382;28;20432;-43
2023/08/01 13:32:59;;;;;;;9.63;8.60;;;;;;;;;;5037848;28;20423;-43
2023/08/01 13:35:27;;;;;;;10.17;9.70;;;;;;;;;;5037309;28;20498;-43
2023/08/01 13:37:56;;;;;;;9.33;8.83;;;;;;;;;;5037772;28;20475;-45
2023/08/01 13:40:25;;;;;;;9.10;8.60;;;;;;;;;;5038707;28;20431;-43
2023/08/01 13:42:53;;;;;;;8.73;8.43;;;;;;;;;;5038005;28;20439;-43
2023/08/01 13:45:20;;;;;;;8.33;7.90;;;;;;;;;;5036536;28;20490;-45
2023/08/01 13:47:48;;;;;;;8.27;7.77;;;;;;;;;;5037642;28;20435;-43
2023/08/01 13:50:16;;;;;;;8.40;8.00;;;;;;;;;;5037460;28;20439;-44
2023/08/01 13:52:44;;;;;;;9.93;9.30;;;;;;;;;;5037467;28;20452;-46
2023/08/01 13:55:17;;;;;;;9.17;8.50;;;;;;;;;;5036964;28;20463;-44
2023/08/01 13:57:44;;;;;;;8.67;8.23;;;;;;;;;;5032000;28;20818;-42
2023/08/01 14:00:13;;;;;;;8.50;7.83;;;;;;;;;;5038266;28;20436;-45
2023/08/01 14:02:41;;;;;;;8.73;8.33;;;;;;;;;;5037130;28;20486;-45
2023/08/01 14:05:10;;;;;;;8.73;8.33;;;;;;;;;;5036427;28;20809;-47
2023/08/01 14:07:38;;;;;;;9.70;9.10;;;;;;;;;;5037530;28;20482;-43
2023/08/01 14:10:10;;;;;;;9.13;8.70;;;;;;;;;;5019365;28;20491;-43
2023/08/01 14:12:40;;;;;;;10.17;9.23;;;;;;;;;;5038387;28;20486;-42
2023/08/01 14:15:08;;;;;;;9.80;9.30;;;;;;;;;;5040019;28;20460;-43
2023/08/01 14:17:36;;;;;;;10.30;9.80;;;;;;;;;;5039711;28;20439;-42
2023/08/01 14:20:05;;;;;;;10.97;10.57;;;;;;;;;;5040680;28;20471;-42
2023/08/01 14:22:32;;;;;;;11.40;10.60;;;;;;;;;;5040191;28;20454;-43
2023/08/01 14:25:00;;;;;;;10.50;10.10;;;;;;;;;;5038837;28;20499;-42
2023/08/01 14:27:27;;;;;;;10.83;10.10;;;;;;;;;;5040670;28;20458;-42